Time;durP1;ratioP1;P1;durP2;ratioP2;P2;SDS_P1;SDS_P2;PMS_P1;PMS_P2;Temp;Humidity;BMP_temperature;BMP_pressure;BME280_temperature;BME280_humidity;BME280_pressure;Samples;Min_cycle;Max_cycle;Signal;HPM_P1;HPM_P2
2022/12/17 13:06:54;;;;;;;75.30;32.58;;;0.50;99.90;;;;;;5073450;28;20051;-86
2022/12/17 13:09:32;;;;;;;75.53;33.53;;;0.50;99.90;;;;;;5057188;28;20089;-86
2022/12/17 13:12:01;;;;;;;70.18;33.35;;;0.50;99.90;;;;;;5072061;28;20063;-86
2022/12/17 13:14:32;;;;;;;67.25;31.70;;;0.80;99.90;;;;;;5045536;28;20495;-85
2022/12/17 13:17:13;;;;;;;81.93;34.97;;;0.80;99.90;;;;;;5053424;28;20130;-83
2022/12/17 13:19:46;;;;;;;77.90;37.17;;;0.70;99.90;;;;;;5044841;28;20036;-85
2022/12/17 13:22:15;;;;;;;75.20;33.63;;;1.10;99.90;;;;;;5054340;28;20039;-84
2022/12/17 13:24:46;;;;;;;78.05;35.58;;;2.60;99.90;;;;;;5043211;28;20040;-84
2022/12/17 13:27:33;;;;;;;80.60;35.67;;;1.20;99.90;;;;;;5073109;28;20040;-84
2022/12/17 13:30:16;;;;;;;82.22;37.65;;;0.50;99.90;;;;;;5056869;28;20071;-84
2022/12/17 13:33:10;;;;;;;70.47;32.75;;;0.40;99.90;;;;;;5047819;28;20040;-84
2022/12/17 13:35:45;;;;;;;76.15;34.03;;;0.40;99.90;;;;;;5056885;28;20051;-84
2022/12/17 13:38:29;;;;;;;76.63;34.17;;;0.50;99.90;;;;;;5049282;28;20051;-84
2022/12/17 13:41:14;;;;;;;78.60;35.40;;;0.50;99.90;;;;;;5059206;28;20157;-84
2022/12/17 13:43:51;;;;;;;81.32;35.97;;;-0.20;99.90;;;;;;5059175;28;20499;-84
2022/12/17 13:46:35;;;;;;;74.25;36.03;;;0.50;99.90;;;;;;5057609;28;20040;-84
2022/12/17 13:49:04;;;;;;;75.93;34.67;;;0.40;99.90;;;;;;5062584;28;20386;-84
2022/12/17 13:51:32;;;;;;;82.13;36.83;;;0.30;99.90;;;;;;5056325;28;20048;-84
2022/12/17 13:54:00;;;;;;;68.43;33.30;;;2.50;99.90;;;;;;5054908;28;20433;-83
2022/12/17 13:56:30;;;;;;;75.15;35.10;;;2.10;99.90;;;;;;5053844;28;20040;-80
2022/12/17 13:58:57;;;;;;;82.72;36.03;;;0.90;99.90;;;;;;5069207;28;20483;-78
2022/12/17 14:01:25;;;;;;;66.47;32.55;;;1.00;99.90;;;;;;5067717;28;20032;-79
2022/12/17 14:03:56;;;;;;;75.15;33.78;;;1.00;99.90;;;;;;5038322;28;20086;-78
2022/12/17 14:06:24;;;;;;;71.18;32.72;;;1.80;99.90;;;;;;5070103;28;20502;-78
2022/12/17 14:08:52;;;;;;;72.47;34.50;;;0.90;99.90;;;;;;5052563;28;20083;-78
2022/12/17 14:14:07;;;;;;;76.80;35.92;;;0.60;99.90;;;;;;5039801;28;20040;-78
2022/12/17 14:16:33;;;;;;;67.53;30.88;;;0.50;99.90;;;;;;5051550;28;20052;-78
2022/12/17 14:18:59;;;;;;;64.38;28.40;;;0.40;99.90;;;;;;5035934;28;20050;-78
2022/12/17 14:21:26;;;;;;;69.15;32.55;;;0.30;99.90;;;;;;5054400;28;20039;-78
2022/12/17 14:23:53;;;;;;;65.85;28.58;;;0.20;99.90;;;;;;5054298;28;20048;-79
2022/12/17 14:26:20;;;;;;;65.60;30.15;;;0.20;99.90;;;;;;5052908;28;20040;-79
2022/12/17 14:28:47;;;;;;;68.85;31.10;;;0.00;99.90;;;;;;5054782;28;20403;-79
2022/12/17 14:31:20;;;;;;;74.85;33.85;;;0.00;99.90;;;;;;5070568;28;20039;-79
2022/12/17 14:33:47;;;;;;;52.35;22.20;;;-0.10;99.90;;;;;;5054468;28;20395;-78
2022/12/17 14:36:20;;;;;;;67.25;31.70;;;-0.20;99.90;;;;;;5070365;28;20062;-78
2022/12/17 14:38:59;;;;;;;62.10;26.02;;;-0.30;99.90;;;;;;5054315;28;20495;-78
2022/12/17 14:44:20;;;;;;;75.30;32.30;;;0.70;99.90;;;;;;5070259;28;20131;-78
2022/12/17 14:46:46;;;;;;;73.75;32.70;;;-0.10;99.90;;;;;;5054288;28;20878;-78
2022/12/17 14:49:18;;;;;;;63.33;29.45;;;-0.40;99.90;;;;;;5054165;28;20082;-78
2022/12/17 14:51:43;;;;;;;70.90;31.73;;;-0.40;99.90;;;;;;5053847;28;20036;-78
2022/12/17 14:54:24;;;;;;;64.00;29.65;;;-0.40;99.90;;;;;;5036662;28;20044;-79
2022/12/17 14:56:51;;;;;;;78.18;33.55;;;-0.50;99.90;;;;;;5052034;28;20131;-78
2022/12/17 14:59:34;;;;;;;67.60;29.20;;;-0.20;99.90;;;;;;5053755;28;20052;-79
2022/12/17 15:02:25;;;;;;;76.70;33.03;;;-0.60;99.90;;;;;;5038230;28;20133;-79
2022/12/17 15:05:00;;;;;;;67.30;30.00;;;-0.70;99.90;;;;;;5057993;28;20051;-79
2022/12/17 15:07:28;;;;;;;63.37;25.77;;;-0.70;99.90;;;;;;5037033;28;20553;-83
2022/12/17 15:10:00;;;;;;;67.15;31.67;;;-0.70;99.90;;;;;;5037439;28;20844;-83
2022/12/17 15:12:26;;;;;;;67.05;30.02;;;0.90;99.90;;;;;;5038192;28;20075;-83
2022/12/17 15:14:52;;;;;;;72.75;30.35;;;-0.70;99.90;;;;;;5037071;28;20056;-83
2022/12/17 15:17:18;;;;;;;73.47;31.40;;;-0.70;99.90;;;;;;5053866;28;20048;-82
2022/12/17 15:19:44;;;;;;;68.93;30.90;;;-0.60;99.90;;;;;;5021562;28;20074;-83
2022/12/17 15:22:15;;;;;;;70.78;30.35;;;-0.90;99.90;;;;;;5053884;28;20485;-83
2022/12/17 15:24:41;;;;;;;68.93;29.20;;;0.60;99.90;;;;;;5051747;28;20032;-83
2022/12/17 15:27:15;;;;;;;75.70;32.72;;;-0.70;99.90;;;;;;5053223;28;20054;-83
2022/12/17 15:29:42;;;;;;;74.95;30.80;;;-0.80;99.90;;;;;;5053067;28;20067;-84
2022/12/17 15:32:19;;;;;;;69.20;26.52;;;-0.90;99.90;;;;;;5068403;28;20043;-83
2022/12/17 15:34:45;;;;;;;66.97;28.27;;;-0.90;99.90;;;;;;5052564;28;20048;-83
2022/12/17 15:37:12;;;;;;;75.53;30.38;;;-0.80;99.90;;;;;;5065388;28;20050;-83
2022/12/17 15:39:37;;;;;;;64.22;26.20;;;0.90;99.90;;;;;;5051399;28;20176;-83
2022/12/17 15:44:47;;;;;;;73.20;30.42;;;-0.90;99.90;;;;;;5039848;28;20186;-83
2022/12/17 15:47:13;;;;;;;70.72;29.27;;;-1.00;99.90;;;;;;5042923;28;20534;-83
2022/12/17 15:49:39;;;;;;;67.57;27.70;;;-1.00;99.90;;;;;;5036270;28;20039;-83
2022/12/17 15:52:04;;;;;;;65.45;28.20;;;-1.00;99.90;;;;;;5020779;28;20043;-84
2022/12/17 15:54:30;;;;;;;72.72;30.65;;;-1.10;99.90;;;;;;5022674;28;20036;-83
2022/12/17 15:56:57;;;;;;;74.07;30.08;;;-1.10;99.90;;;;;;5040734;28;20048;-83
2022/12/17 15:59:23;;;;;;;64.90;26.27;;;-1.10;99.90;;;;;;5057239;28;20075;-83
2022/12/17 16:01:48;;;;;;;71.72;29.63;;;-0.90;99.90;;;;;;5054206;28;20052;-86
2022/12/17 16:04:14;;;;;;;74.68;30.83;;;-1.50;99.90;;;;;;5019425;28;20495;-87
2022/12/17 16:06:40;;;;;;;73.00;30.58;;;1.40;99.90;;;;;;5055783;28;20048;-86
2022/12/17 16:09:05;;;;;;;75.40;30.42;;;-0.20;99.90;;;;;;5055899;28;20051;-87
2022/12/17 16:11:31;;;;;;;70.03;28.98;;;-0.80;99.90;;;;;;5037632;28;20971;-87
2022/12/17 16:13:57;;;;;;;77.60;31.15;;;0.60;99.90;;;;;;5055822;28;20047;-86
2022/12/17 16:16:23;;;;;;;63.45;27.45;;;0.90;99.90;;;;;;5039540;28;20427;-86
2022/12/17 16:18:49;;;;;;;71.20;29.02;;;0.70;99.90;;;;;;5056398;28;20391;-86
2022/12/17 16:21:15;;;;;;;75.75;32.22;;;-1.40;99.90;;;;;;5035554;28;20093;-86
2022/12/17 16:23:40;;;;;;;64.45;27.67;;;0.90;99.90;;;;;;5032313;28;20069;-87
2022/12/17 16:26:09;;;;;;;70.93;28.23;;;-1.40;99.90;;;;;;5024685;28;20124;-86
2022/12/17 16:28:35;;;;;;;83.88;33.20;;;0.30;99.90;;;;;;5057235;28;20380;-86
2022/12/17 16:31:07;;;;;;;75.70;29.73;;;0.60;99.90;;;;;;5041194;28;20395;-86
2022/12/17 16:33:38;;;;;;;61.90;25.05;;;-1.40;99.90;;;;;;5050305;28;20039;-87
2022/12/17 16:36:05;;;;;;;66.32;27.63;;;-1.80;99.90;;;;;;5042128;28;20044;-86
2022/12/17 16:38:32;;;;;;;76.05;30.55;;;-1.40;99.90;;;;;;5058034;28;20090;-86
2022/12/17 16:41:01;;;;;;;87.65;31.90;;;-1.40;99.90;;;;;;5057810;28;20071;-86
2022/12/17 16:43:32;;;;;;;73.88;31.58;;;-1.00;99.90;;;;;;5058273;28;20043;-86
2022/12/17 16:45:58;;;;;;;74.78;30.25;;;-1.50;99.90;;;;;;5057730;28;20048;-85
2022/12/17 16:48:23;;;;;;;69.93;26.17;;;0.90;99.90;;;;;;5073373;28;20042;-86
2022/12/17 16:50:49;;;;;;;82.35;31.88;;;-1.70;99.90;;;;;;5040486;28;20066;-84
2022/12/17 16:53:17;;;;;;;73.35;29.27;;;1.10;99.90;;;;;;5073684;28;20136;-85
2022/12/17 16:55:45;;;;;;;78.95;29.60;;;-1.50;99.90;;;;;;5039173;28;20170;-85
2022/12/17 16:58:12;;;;;;;78.68;31.00;;;-1.40;99.90;;;;;;5046801;28;20040;-85
2022/12/17 17:00:38;;;;;;;64.43;25.00;;;-1.50;99.90;;;;;;5054854;28;20052;-85
2022/12/17 17:03:05;;;;;;;70.28;28.83;;;-1.70;99.90;;;;;;5054874;28;20055;-84
2022/12/17 17:05:35;;;;;;;77.45;30.58;;;-1.70;99.90;;;;;;5071234;28;20032;-85
2022/12/17 17:08:02;;;;;;;63.20;27.58;;;-0.20;99.90;;;;;;5057127;28;20391;-85
2022/12/17 17:10:28;;;;;;;79.72;29.00;;;-0.20;99.90;;;;;;5056285;28;20040;-85
2022/12/17 17:12:54;;;;;;;82.13;32.15;;;-0.90;99.90;;;;;;5054055;28;20040;-87
2022/12/17 17:15:21;;;;;;;85.07;32.78;;;-1.70;99.90;;;;;;5063262;28;20052;-87
2022/12/17 17:17:47;;;;;;;82.75;30.42;;;0.20;99.90;;;;;;5040169;28;20051;-86
2022/12/17 17:20:13;;;;;;;77.53;30.52;;;-1.60;99.90;;;;;;5023786;28;20048;-86
2022/12/17 17:22:39;;;;;;;73.30;29.23;;;-1.70;99.90;;;;;;5056716;28;20390;-86
2022/12/17 17:25:05;;;;;;;72.07;30.83;;;0.00;99.90;;;;;;5039598;28;20044;-86
2022/12/17 17:27:31;;;;;;;67.55;27.20;;;-1.70;99.90;;;;;;5040323;28;20063;-86
2022/12/17 17:29:57;;;;;;;77.85;31.13;;;0.10;99.90;;;;;;5038961;28;20054;-86
2022/12/17 17:32:24;;;;;;;72.10;27.25;;;0.20;99.90;;;;;;5039591;28;20044;-86
2022/12/17 17:34:50;;;;;;;70.03;26.77;;;-0.50;99.90;;;;;;5054655;28;20048;-86
2022/12/17 17:37:16;;;;;;;54.42;20.98;;;-1.70;99.90;;;;;;5039661;28;20043;-86
2022/12/17 17:39:41;;;;;;;85.10;30.52;;;-1.80;99.90;;;;;;5040395;28;20028;-86
2022/12/17 17:42:08;;;;;;;80.55;29.30;;;0.00;99.90;;;;;;5039684;28;20044;-86
2022/12/17 17:44:35;;;;;;;77.82;29.33;;;0.00;99.90;;;;;;5054313;28;20043;-86
2022/12/17 17:47:01;;;;;;;75.28;26.73;;;0.60;99.90;;;;;;5070854;28;20065;-86
2022/12/17 17:49:26;;;;;;;79.28;28.65;;;-1.60;99.90;;;;;;5056251;28;20044;-86
2022/12/17 17:51:52;;;;;;;81.13;30.33;;;-0.10;99.90;;;;;;5045927;28;20054;-84
2022/12/17 17:54:18;;;;;;;67.13;28.23;;;0.40;99.90;;;;;;5071783;28;20036;-85
2022/12/17 17:56:44;;;;;;;77.47;31.42;;;-2.20;99.90;;;;;;5022937;28;20093;-86
2022/12/17 17:59:13;;;;;;;71.00;28.13;;;-2.10;99.90;;;;;;5052013;28;20036;-86
2022/12/17 18:01:44;;;;;;;82.10;29.38;;;0.50;99.90;;;;;;5057048;28;20065;-86
2022/12/17 18:04:13;;;;;;;78.53;29.52;;;-2.10;99.90;;;;;;5057456;28;20089;-85
2022/12/17 18:06:40;;;;;;;79.32;32.03;;;-1.80;99.90;;;;;;5056325;28;20044;-86
2022/12/17 18:09:06;;;;;;;81.30;32.13;;;0.20;99.90;;;;;;5057257;28;20048;-86
2022/12/17 18:11:33;;;;;;;72.88;27.98;;;-1.90;99.90;;;;;;5056891;28;20043;-86
2022/12/17 18:14:00;;;;;;;80.13;31.00;;;-1.70;99.90;;;;;;5039396;28;20104;-85
2022/12/17 18:16:34;;;;;;;66.03;27.67;;;-2.00;99.90;;;;;;5039244;28;20066;-85
2022/12/17 18:19:08;;;;;;;74.30;31.33;;;-1.80;99.90;;;;;;5073248;28;20049;-86
2022/12/17 18:21:34;;;;;;;83.90;32.95;;;-1.70;99.90;;;;;;5056078;28;20027;-85
2022/12/17 18:24:03;;;;;;;79.30;31.60;;;0.40;99.90;;;;;;5055742;28;20040;-86
2022/12/17 18:26:31;;;;;;;72.93;28.92;;;-1.90;99.90;;;;;;5074013;28;20040;-85
2022/12/17 18:29:01;;;;;;;63.50;26.02;;;0.20;99.90;;;;;;5048015;28;20040;-86
2022/12/17 18:31:27;;;;;;;69.20;27.73;;;-2.10;99.90;;;;;;5057090;28;20044;-85
2022/12/17 18:33:57;;;;;;;74.80;30.55;;;-2.20;99.90;;;;;;5040242;28;20044;-85
2022/12/17 18:36:27;;;;;;;64.03;24.58;;;0.40;99.90;;;;;;5055156;28;20051;-85
2022/12/17 18:39:01;;;;;;;72.50;30.05;;;-1.90;99.90;;;;;;5056265;28;20118;-85
2022/12/17 18:44:13;;;;;;;68.20;28.35;;;-2.20;99.90;;;;;;5056293;28;20115;-85
2022/12/17 18:46:38;;;;;;;68.90;29.65;;;-2.10;99.90;;;;;;5055568;28;20048;-85
2022/12/17 18:49:07;;;;;;;66.18;24.80;;;-2.20;99.90;;;;;;5039988;28;20048;-85
2022/12/17 18:51:34;;;;;;;65.78;28.52;;;-2.20;99.90;;;;;;5048763;28;20032;-85
2022/12/17 18:54:01;;;;;;;70.78;32.50;;;-2.10;99.90;;;;;;5039953;28;20071;-86
2022/12/17 18:56:28;;;;;;;80.60;33.00;;;-1.30;99.90;;;;;;5056435;28;20040;-85
2022/12/17 18:58:55;;;;;;;84.10;33.75;;;-2.10;99.90;;;;;;5073938;28;20046;-86
2022/12/17 19:01:30;;;;;;;53.25;23.90;;;-2.20;99.90;;;;;;5056141;28;20044;-85
2022/12/17 19:03:56;;;;;;;80.57;32.38;;;-1.80;99.90;;;;;;5053676;28;20039;-86
2022/12/17 19:06:23;;;;;;;78.85;33.45;;;-1.80;99.90;;;;;;5072862;28;20478;-85
2022/12/17 19:08:50;;;;;;;72.63;29.63;;;-2.30;99.90;;;;;;5073367;28;20040;-86
2022/12/17 19:11:18;;;;;;;77.40;29.50;;;0.20;99.90;;;;;;5039663;28;20048;-86
2022/12/17 19:13:45;;;;;;;82.13;34.05;;;-2.30;99.90;;;;;;5056539;28;20036;-85
2022/12/17 19:16:14;;;;;;;67.70;25.63;;;-2.20;99.90;;;;;;5068236;28;20175;-86
2022/12/17 19:18:40;;;;;;;81.22;32.63;;;-2.20;99.90;;;;;;5059931;28;20552;-85
2022/12/17 19:21:09;;;;;;;76.30;32.30;;;-2.20;99.90;;;;;;5053018;28;20530;-85
2022/12/17 19:23:35;;;;;;;68.10;27.77;;;-0.90;99.90;;;;;;5052597;28;20115;-85
2022/12/17 19:26:09;;;;;;;77.53;32.95;;;-0.60;99.90;;;;;;5069599;28;20120;-86
2022/12/17 19:28:35;;;;;;;86.47;33.05;;;0.00;99.90;;;;;;5060639;28;20198;-86
2022/12/17 19:31:01;;;;;;;86.10;34.58;;;-0.80;99.90;;;;;;5034925;28;20044;-85
2022/12/17 19:33:27;;;;;;;68.60;30.55;;;-0.70;99.90;;;;;;5035493;28;20091;-86
2022/12/17 19:36:05;;;;;;;74.10;29.13;;;-2.40;99.90;;;;;;5035726;28;20051;-85
2022/12/17 19:38:32;;;;;;;82.18;31.77;;;-2.20;99.90;;;;;;5037156;28;20032;-85
2022/12/17 19:41:16;;;;;;;81.50;33.85;;;-2.40;99.90;;;;;;5028065;28;20032;-86
2022/12/17 19:43:46;;;;;;;83.65;32.90;;;-0.10;99.90;;;;;;5052391;28;20032;-85
2022/12/17 19:46:17;;;;;;;82.95;32.85;;;-2.20;99.90;;;;;;5058792;28;20080;-85
2022/12/17 19:48:44;;;;;;;71.63;29.88;;;0.00;99.90;;;;;;5052583;28;20048;-85
2022/12/17 19:51:12;;;;;;;73.80;30.33;;;-2.30;99.90;;;;;;5035935;28;20044;-86
2022/12/17 19:53:39;;;;;;;77.47;32.05;;;-2.40;99.90;;;;;;5052196;28;20052;-86
2022/12/17 19:56:26;;;;;;;62.95;26.08;;;0.20;99.90;;;;;;5051929;28;20037;-85
2022/12/17 19:58:55;;;;;;;76.32;32.13;;;-2.30;99.90;;;;;;5043919;28;20063;-85
2022/12/17 20:01:42;;;;;;;76.28;32.65;;;0.10;99.90;;;;;;5069359;28;20079;-85
2022/12/17 20:04:10;;;;;;;72.45;29.25;;;-2.40;99.90;;;;;;5052414;28;20595;-86
2022/12/17 20:06:36;;;;;;;69.47;27.75;;;-2.50;99.90;;;;;;5052695;28;20044;-85
2022/12/17 20:09:03;;;;;;;78.03;31.08;;;-2.30;99.90;;;;;;5019577;28;20066;-86
2022/12/17 20:11:32;;;;;;;70.28;30.30;;;-2.50;99.90;;;;;;5035413;28;20040;-86
2022/12/17 20:14:14;;;;;;;65.20;25.90;;;-2.30;99.90;;;;;;5035332;28;20048;-85
2022/12/17 20:16:43;;;;;;;66.78;27.25;;;-2.40;99.90;;;;;;5052105;28;20051;-86
2022/12/17 20:19:21;;;;;;;80.55;30.92;;;-2.50;99.90;;;;;;5052472;28;20040;-86
2022/12/17 20:21:47;;;;;;;71.82;29.60;;;-2.50;99.90;;;;;;5052336;28;20460;-85
2022/12/17 20:24:13;;;;;;;53.15;23.05;;;-0.90;99.90;;;;;;5035198;28;20043;-85
2022/12/17 20:26:40;;;;;;;74.38;31.63;;;-2.50;99.90;;;;;;5052615;28;20384;-85
2022/12/17 20:29:06;;;;;;;78.00;33.95;;;-2.70;99.90;;;;;;5061163;28;20511;-85
2022/12/17 20:31:32;;;;;;;77.95;31.83;;;-2.60;99.90;;;;;;5052515;28;20045;-86
2022/12/17 20:34:06;;;;;;;75.22;32.03;;;-0.10;99.90;;;;;;5052049;28;20070;-86
2022/12/17 20:36:33;;;;;;;78.95;31.10;;;-0.30;99.90;;;;;;5068144;28;20059;-85
2022/12/17 20:38:59;;;;;;;75.30;29.05;;;-1.10;99.90;;;;;;5052857;28;20032;-85
2022/12/17 20:41:27;;;;;;;54.03;21.63;;;-2.50;99.90;;;;;;5055229;28;20062;-85
2022/12/17 20:43:53;;;;;;;79.22;31.70;;;-2.70;99.90;;;;;;5055347;28;20075;-86
2022/12/17 20:46:20;;;;;;;75.70;33.33;;;-2.70;99.90;;;;;;5039097;28;20553;-86
2022/12/17 20:48:46;;;;;;;79.22;31.98;;;-1.10;99.90;;;;;;5072312;28;20055;-86
2022/12/17 20:51:15;;;;;;;76.97;32.67;;;-1.70;99.90;;;;;;5072553;28;20090;-85
2022/12/17 20:53:42;;;;;;;74.10;32.08;;;-2.60;99.90;;;;;;5055516;28;20047;-85
2022/12/17 20:56:11;;;;;;;75.97;33.45;;;-2.70;99.90;;;;;;5072157;28;20101;-86
2022/12/17 20:58:38;;;;;;;81.10;33.60;;;-2.60;99.90;;;;;;5054030;28;20083;-86
2022/12/17 21:01:09;;;;;;;72.00;27.52;;;-2.60;99.90;;;;;;5039101;28;20388;-86
2022/12/17 21:03:35;;;;;;;85.32;32.65;;;-2.60;99.90;;;;;;5047351;28;20048;-85
2022/12/17 21:06:10;;;;;;;83.47;34.25;;;-2.60;99.90;;;;;;5055428;28;20119;-86
2022/12/17 21:08:37;;;;;;;78.00;30.87;;;-2.50;99.90;;;;;;5055029;28;20051;-86
2022/12/17 21:11:03;;;;;;;68.13;28.80;;;0.10;99.90;;;;;;5054259;28;20131;-85
2022/12/17 21:13:29;;;;;;;83.35;31.02;;;-2.40;99.90;;;;;;5055102;28;20178;-85
2022/12/17 21:15:56;;;;;;;72.13;28.27;;;-2.40;99.90;;;;;;5021409;28;20129;-85
2022/12/17 21:18:22;;;;;;;80.93;31.92;;;-2.70;99.90;;;;;;5038303;28;20610;-85
2022/12/17 21:20:59;;;;;;;72.90;26.73;;;-2.60;99.90;;;;;;5039019;28;20043;-85
2022/12/17 21:23:26;;;;;;;70.35;27.40;;;-2.60;99.90;;;;;;5054576;28;20483;-85
2022/12/17 21:26:10;;;;;;;96.20;32.58;;;-1.80;99.90;;;;;;5054024;28;20127;-85
2022/12/17 21:28:37;;;;;;;90.95;34.33;;;-2.60;99.90;;;;;;5062171;28;20496;-85
2022/12/17 21:31:02;;;;;;;79.70;29.95;;;-0.80;99.90;;;;;;5038276;28;20093;-85
2022/12/17 21:33:29;;;;;;;73.05;26.52;;;-0.50;99.90;;;;;;5037648;28;20131;-85
2022/12/17 21:36:04;;;;;;;81.03;32.67;;;-2.60;99.90;;;;;;5054740;28;20439;-85
2022/12/17 21:38:31;;;;;;;61.92;23.42;;;-2.60;99.90;;;;;;5038099;28;20434;-85
2022/12/17 21:41:04;;;;;;;63.47;23.02;;;-2.70;99.90;;;;;;5068851;28;20047;-86
2022/12/17 21:43:29;;;;;;;80.78;31.88;;;-2.60;99.90;;;;;;5051099;28;20043;-86
2022/12/17 21:45:56;;;;;;;89.38;33.20;;;-1.80;99.90;;;;;;5037314;28;20052;-86
2022/12/17 21:48:23;;;;;;;77.45;29.42;;;-0.30;99.90;;;;;;5054330;28;20040;-86
2022/12/17 21:50:49;;;;;;;101.03;36.00;;;-2.70;99.90;;;;;;5054104;28;20119;-86
2022/12/17 21:53:15;;;;;;;87.40;32.92;;;-0.70;99.90;;;;;;5035129;28;20503;-86
2022/12/17 21:55:40;;;;;;;109.95;36.42;;;-2.70;99.90;;;;;;5033976;28;20053;-86
2022/12/17 21:58:07;;;;;;;101.60;34.17;;;-2.70;99.90;;;;;;5036197;28;20124;-86
2022/12/17 22:00:33;;;;;;;96.57;33.47;;;-1.30;99.90;;;;;;5051467;28;20048;-86
2022/12/17 22:02:59;;;;;;;100.75;35.42;;;-0.30;99.90;;;;;;5036427;28;20403;-86
2022/12/17 22:05:25;;;;;;;84.82;29.75;;;-2.70;99.90;;;;;;5053057;28;20056;-86
2022/12/17 22:07:51;;;;;;;91.43;31.10;;;-1.00;99.90;;;;;;5069454;28;20123;-86
2022/12/17 22:10:17;;;;;;;82.18;30.02;;;-0.40;99.90;;;;;;5035240;28;20127;-86
2022/12/17 22:15:26;;;;;;;91.57;33.80;;;-2.80;99.90;;;;;;5052913;28;20400;-86
2022/12/17 22:17:54;;;;;;;88.40;30.70;;;-0.10;99.90;;;;;;5036222;28;20045;-86
2022/12/17 22:20:19;;;;;;;90.22;30.98;;;-2.40;99.90;;;;;;5068227;28;20048;-83
2022/12/17 22:22:45;;;;;;;88.70;33.00;;;-0.80;99.90;;;;;;5016916;28;20045;-85
2022/12/17 22:25:11;;;;;;;66.57;23.48;;;-3.00;99.90;;;;;;5017422;28;20051;-87
2022/12/17 22:27:38;;;;;;;64.60;23.98;;;-3.10;99.90;;;;;;5035168;28;20051;-79
2022/12/17 22:32:59;;;;;;;85.82;30.73;;;-2.80;99.90;;;;;;5066719;28;20113;-80
2022/12/17 22:35:26;;;;;;;79.63;27.20;;;-2.90;99.90;;;;;;5049529;28;20041;-80
2022/12/17 22:37:52;;;;;;;71.28;26.15;;;-2.90;99.90;;;;;;5066061;28;20052;-81
2022/12/17 22:40:21;;;;;;;92.60;31.35;;;-2.90;99.90;;;;;;5048505;28;20557;-81
2022/12/17 22:45:32;;;;;;;81.53;28.95;;;-2.90;99.90;;;;;;5052829;28;20044;-82
2022/12/17 22:47:58;;;;;;;75.75;28.45;;;-2.90;99.90;;;;;;5031485;28;20055;-81
2022/12/17 22:50:24;;;;;;;82.20;28.95;;;-3.00;99.90;;;;;;5067456;28;20055;-81
2022/12/17 22:52:50;;;;;;;90.07;29.85;;;-3.00;99.90;;;;;;5064968;28;20090;-81
2022/12/17 22:55:15;;;;;;;87.03;30.45;;;-3.00;99.90;;;;;;5067615;28;20554;-81
2022/12/17 22:57:41;;;;;;;77.22;29.52;;;-3.10;99.90;;;;;;5014999;28;20051;-82
2022/12/17 23:00:15;;;;;;;74.97;28.02;;;-2.90;99.90;;;;;;5033605;28;20101;-81
2022/12/17 23:02:41;;;;;;;82.55;28.65;;;-3.00;99.90;;;;;;5050214;28;20369;-81
2022/12/17 23:05:07;;;;;;;77.95;29.92;;;-2.40;99.90;;;;;;5048348;28;20035;-81
2022/12/17 23:07:33;;;;;;;64.05;20.45;;;-3.00;99.90;;;;;;5064606;28;20050;-82
2022/12/17 23:09:58;;;;;;;66.80;21.65;;;-3.00;99.90;;;;;;5031823;28;20041;-81
2022/12/17 23:15:08;;;;;;;83.35;29.70;;;-1.10;99.90;;;;;;5054752;28;20125;-81
2022/12/17 23:17:34;;;;;;;70.38;24.50;;;-3.10;99.90;;;;;;5038266;28;20487;-87
2022/12/17 23:20:00;;;;;;;98.50;30.00;;;-1.90;99.90;;;;;;5055650;28;20048;-81
2022/12/17 23:22:25;;;;;;;70.68;25.15;;;-2.10;99.90;;;;;;5055651;28;20036;-82
2022/12/17 23:24:51;;;;;;;64.85;21.42;;;-3.20;99.90;;;;;;5037691;28;20046;-81
2022/12/17 23:27:17;;;;;;;73.55;25.38;;;-1.40;99.90;;;;;;5053298;28;20552;-82
2022/12/17 23:29:43;;;;;;;84.40;31.30;;;-3.20;99.90;;;;;;5022833;28;20052;-82
2022/12/17 23:32:08;;;;;;;79.93;28.70;;;-3.30;99.90;;;;;;5055464;28;20851;-81
2022/12/17 23:34:34;;;;;;;56.15;19.60;;;-3.30;99.90;;;;;;5038318;28;20048;-82
2022/12/17 23:37:00;;;;;;;81.63;29.35;;;-2.00;99.90;;;;;;5054626;28;20044;-82
2022/12/17 23:39:25;;;;;;;87.30;29.55;;;-3.40;99.90;;;;;;5022404;28;20044;-81
2022/12/17 23:41:53;;;;;;;75.53;28.98;;;-3.00;99.90;;;;;;5038927;28;20036;-81
2022/12/17 23:44:19;;;;;;;73.18;27.83;;;-3.40;99.90;;;;;;5039629;28;20122;-81
2022/12/17 23:46:45;;;;;;;73.53;27.02;;;-2.80;99.90;;;;;;5023054;28;20109;-81
2022/12/17 23:49:13;;;;;;;79.93;28.85;;;-2.70;99.90;;;;;;5039327;28;20442;-82
2022/12/17 23:51:39;;;;;;;76.57;28.70;;;-3.40;99.90;;;;;;5039565;28;20487;-81
2022/12/17 23:54:05;;;;;;;60.22;23.50;;;-3.50;99.90;;;;;;5038316;28;20079;-81
2022/12/17 23:56:31;;;;;;;72.32;27.48;;;-3.50;99.90;;;;;;5038348;28;20046;-81
2022/12/17 23:58:59;;;;;;;73.50;28.88;;;-3.60;99.90;;;;;;5039100;28;20170;-82
